sensor_id;sensor_type;location;lat;lon;timestamp;pressure;altitude;pressure_sealevel;temperature;humidity
6530;BME280;3298;42.688;23.366;2023-02-21T00:02:33;51702.75;;;-145.06;56.11
6530;BME280;3298;42.688;23.366;2023-02-21T00:05:17;51680.25;;;-145.06;55.86
6530;BME280;3298;42.688;23.366;2023-02-21T00:08:02;51663.88;;;-145.06;55.83
6530;BME280;3298;42.688;23.366;2023-02-21T00:10:46;51692.53;;;-145.06;56.04
6530;BME280;3298;42.688;23.366;2023-02-21T00:13:34;51690.47;;;-145.06;56.17
6530;BME280;3298;42.688;23.366;2023-02-21T00:16:18;51706.84;;;-145.06;56.24
6530;BME280;3298;42.688;23.366;2023-02-21T00:19:03;51688.44;;;-145.06;56.23
6530;BME280;3298;42.688;23.366;2023-02-21T00:21:47;51682.28;;;-145.06;56.14
6530;BME280;3298;42.688;23.366;2023-02-21T00:24:31;51688.44;;;-145.06;56.68
6530;BME280;3298;42.688;23.366;2023-02-21T00:27:16;51704.81;;;-145.06;57.33
6530;BME280;3298;42.688;23.366;2023-02-21T00:30:01;51667.97;;;-145.06;56.90
6530;BME280;3298;42.688;23.366;2023-02-21T00:32:45;51704.81;;;-145.06;56.76
6530;BME280;3298;42.688;23.366;2023-02-21T00:35:29;51678.19;;;-145.06;56.19
6530;BME280;3298;42.688;23.366;2023-02-21T00:38:13;51696.63;;;-145.06;56.23
6530;BME280;3298;42.688;23.366;2023-02-21T00:40:57;51696.63;;;-145.06;55.96
6530;BME280;3298;42.688;23.366;2023-02-21T00:43:41;51715.03;;;-145.06;56.06
6530;BME280;3298;42.688;23.366;2023-02-21T00:46:27;51686.38;;;-145.06;55.75
6530;BME280;3298;42.688;23.366;2023-02-21T00:49:11;51678.19;;;-145.06;55.90
6530;BME280;3298;42.688;23.366;2023-02-21T00:51:55;51719.13;;;-145.06;55.21
6530;BME280;3298;42.688;23.366;2023-02-21T00:54:39;51672.06;;;-145.06;55.46
6530;BME280;3298;42.688;23.366;2023-02-21T00:57:23;51674.09;;;-145.06;55.67
6530;BME280;3298;42.688;23.366;2023-02-21T01:00:14;51725.28;;;-145.06;56.45
6530;BME280;3298;42.688;23.366;2023-02-21T01:03:00;51676.16;;;-145.06;56.25
6530;BME280;3298;42.688;23.366;2023-02-21T01:05:44;51665.91;;;-145.06;56.40
6530;BME280;3298;42.688;23.366;2023-02-21T01:08:28;51721.19;;;-145.06;56.56
6530;BME280;3298;42.688;23.366;2023-02-21T01:11:14;51649.56;;;-145.06;57.24
6530;BME280;3298;42.688;23.366;2023-02-21T01:13:58;51672.06;;;-145.06;57.15
6530;BME280;3298;42.688;23.366;2023-02-21T01:16:42;51667.97;;;-145.06;57.24
6530;BME280;3298;42.688;23.366;2023-02-21T01:19:28;51710.94;;;-145.06;57.52
6530;BME280;3298;42.688;23.366;2023-02-21T01:22:13;51667.97;;;-145.06;57.45
6530;BME280;3298;42.688;23.366;2023-02-21T01:24:57;51719.13;;;-145.06;57.03
6530;BME280;3298;42.688;23.366;2023-02-21T01:27:41;51676.16;;;-145.06;57.34
6530;BME280;3298;42.688;23.366;2023-02-21T01:30:25;51688.44;;;-145.06;57.09
6530;BME280;3298;42.688;23.366;2023-02-21T01:33:09;51680.25;;;-145.06;57.21
6530;BME280;3298;42.688;23.366;2023-02-21T01:35:55;51702.75;;;-145.06;57.31
6530;BME280;3298;42.688;23.366;2023-02-21T01:38:39;51674.09;;;-145.06;56.84
6530;BME280;3298;42.688;23.366;2023-02-21T01:41:23;51696.63;;;-145.06;57.13
6530;BME280;3298;42.688;23.366;2023-02-21T01:44:32;51659.78;;;-145.06;57.26
6530;BME280;3298;42.688;23.366;2023-02-21T01:47:17;51655.69;;;-145.06;57.21
6530;BME280;3298;42.688;23.366;2023-02-21T01:50:03;51682.28;;;-145.06;57.28
6530;BME280;3298;42.688;23.366;2023-02-21T01:52:50;51672.06;;;-145.06;57.27
6530;BME280;3298;42.688;23.366;2023-02-21T01:55:36;51684.34;;;-145.06;56.99
6530;BME280;3298;42.688;23.366;2023-02-21T01:58:23;51702.75;;;-145.06;57.06
6530;BME280;3298;42.688;23.366;2023-02-21T02:01:11;51670.00;;;-145.06;56.99
6530;BME280;3298;42.688;23.366;2023-02-21T02:03:59;51670.00;;;-145.06;56.92
6530;BME280;3298;42.688;23.366;2023-02-21T02:06:43;51676.16;;;-145.06;56.95
6530;BME280;3298;42.688;23.366;2023-02-21T02:09:29;51696.63;;;-145.06;56.45
6530;BME280;3298;42.688;23.366;2023-02-21T02:12:26;51704.81;;;-145.06;56.66
6530;BME280;3298;42.688;23.366;2023-02-21T02:15:14;51680.25;;;-145.06;56.05
6530;BME280;3298;42.688;23.366;2023-02-21T02:18:08;51717.09;;;-145.06;56.08
6530;BME280;3298;42.688;23.366;2023-02-21T02:21:06;51694.56;;;-145.06;56.40
6530;BME280;3298;42.688;23.366;2023-02-21T02:26:59;51696.63;;;-145.06;56.49
6530;BME280;3298;42.688;23.366;2023-02-21T02:29:56;51676.16;;;-145.06;56.46
6530;BME280;3298;42.688;23.366;2023-02-21T02:32:50;51665.91;;;-145.06;56.05
6530;BME280;3298;42.688;23.366;2023-02-21T02:35:24;51680.25;;;-145.06;55.97
6530;BME280;3298;42.688;23.366;2023-02-21T02:37:57;51694.56;;;-145.06;55.80
6530;BME280;3298;42.688;23.366;2023-02-21T02:40:33;51706.84;;;-145.06;56.00
6530;BME280;3298;42.688;23.366;2023-02-21T02:43:08;51684.34;;;-145.06;56.46
6530;BME280;3298;42.688;23.366;2023-02-21T02:45:42;51674.09;;;-145.06;56.82
6530;BME280;3298;42.688;23.366;2023-02-21T02:48:14;51700.72;;;-145.06;56.31
6530;BME280;3298;42.688;23.366;2023-02-21T02:50:46;51706.84;;;-145.06;56.45
6530;BME280;3298;42.688;23.366;2023-02-21T02:53:16;51667.97;;;-145.06;56.82
6530;BME280;3298;42.688;23.366;2023-02-21T02:55:47;51715.03;;;-145.06;57.14
6530;BME280;3298;42.688;23.366;2023-02-21T02:58:19;51694.56;;;-145.06;56.68
6530;BME280;3298;42.688;23.366;2023-02-21T03:00:56;51680.25;;;-145.06;56.72
6530;BME280;3298;42.688;23.366;2023-02-21T03:03:41;51680.25;;;-145.06;57.02
6530;BME280;3298;42.688;23.366;2023-02-21T03:06:32;51704.81;;;-145.06;57.24
6530;BME280;3298;42.688;23.366;2023-02-21T03:09:08;51700.72;;;-145.06;56.87
6530;BME280;3298;42.688;23.366;2023-02-21T03:11:42;51696.63;;;-145.06;57.00
6530;BME280;3298;42.688;23.366;2023-02-21T03:14:16;51676.16;;;-145.06;56.56
6530;BME280;3298;42.688;23.366;2023-02-21T03:16:48;51655.69;;;-145.06;56.83
6530;BME280;3298;42.688;23.366;2023-02-21T03:19:17;51684.34;;;-145.06;57.06
6530;BME280;3298;42.688;23.366;2023-02-21T03:21:50;51676.16;;;-145.06;57.13
6530;BME280;3298;42.688;23.366;2023-02-21T03:24:20;51690.47;;;-145.06;57.21
6530;BME280;3298;42.688;23.366;2023-02-21T03:26:51;51708.91;;;-145.06;57.03
6530;BME280;3298;42.688;23.366;2023-02-21T03:29:19;51674.09;;;-145.06;57.23
6530;BME280;3298;42.688;23.366;2023-02-21T03:31:50;51670.00;;;-145.06;57.30
6530;BME280;3298;42.688;23.366;2023-02-21T03:34:19;51700.72;;;-145.06;57.08
6530;BME280;3298;42.688;23.366;2023-02-21T03:36:48;51686.38;;;-145.06;56.74
6530;BME280;3298;42.688;23.366;2023-02-21T03:39:14;51713.00;;;-145.06;56.82
6530;BME280;3298;42.688;23.366;2023-02-21T03:41:41;51702.75;;;-145.06;56.82
6530;BME280;3298;42.688;23.366;2023-02-21T03:44:08;51698.66;;;-145.06;56.68
6530;BME280;3298;42.688;23.366;2023-02-21T03:46:35;51698.66;;;-145.06;56.92
6530;BME280;3298;42.688;23.366;2023-02-21T03:49:02;51663.88;;;-145.06;57.65
6530;BME280;3298;42.688;23.366;2023-02-21T03:51:28;51696.63;;;-145.06;57.59
6530;BME280;3298;42.688;23.366;2023-02-21T03:53:56;51667.97;;;-145.06;57.16
6530;BME280;3298;42.688;23.366;2023-02-21T03:56:23;51702.75;;;-145.06;57.83
6530;BME280;3298;42.688;23.366;2023-02-21T03:58:50;51690.47;;;-145.06;56.97
6530;BME280;3298;42.688;23.366;2023-02-21T04:01:17;51676.16;;;-145.06;57.23
6530;BME280;3298;42.688;23.366;2023-02-21T04:03:44;51696.63;;;-145.06;57.85
6530;BME280;3298;42.688;23.366;2023-02-21T04:06:10;51704.81;;;-145.06;58.25
6530;BME280;3298;42.688;23.366;2023-02-21T04:08:37;51702.75;;;-145.06;58.23
6530;BME280;3298;42.688;23.366;2023-02-21T04:11:05;51696.63;;;-145.06;58.51
6530;BME280;3298;42.688;23.366;2023-02-21T04:13:32;51670.00;;;-145.06;57.97
6530;BME280;3298;42.688;23.366;2023-02-21T04:15:59;51713.00;;;-145.06;57.86
6530;BME280;3298;42.688;23.366;2023-02-21T04:18:26;51674.09;;;-145.06;58.28
6530;BME280;3298;42.688;23.366;2023-02-21T04:20:52;51686.38;;;-145.06;58.46
6530;BME280;3298;42.688;23.366;2023-02-21T04:23:20;51686.38;;;-145.06;58.38
6530;BME280;3298;42.688;23.366;2023-02-21T04:25:47;51676.16;;;-145.06;58.18
6530;BME280;3298;42.688;23.366;2023-02-21T04:28:15;51688.44;;;-145.06;58.13
6530;BME280;3298;42.688;23.366;2023-02-21T04:30:42;51708.91;;;-145.06;58.19
6530;BME280;3298;42.688;23.366;2023-02-21T04:33:08;51719.13;;;-145.06;57.60
6530;BME280;3298;42.688;23.366;2023-02-21T04:35:35;51667.97;;;-145.06;57.71
6530;BME280;3298;42.688;23.366;2023-02-21T04:38:02;51663.88;;;-145.06;57.22
6530;BME280;3298;42.688;23.366;2023-02-21T04:40:29;51682.28;;;-145.06;56.86
6530;BME280;3298;42.688;23.366;2023-02-21T04:42:55;51682.28;;;-145.06;56.38
6530;BME280;3298;42.688;23.366;2023-02-21T04:45:24;51676.16;;;-145.06;56.10
6530;BME280;3298;42.688;23.366;2023-02-21T04:47:50;51686.38;;;-145.06;55.97
6530;BME280;3298;42.688;23.366;2023-02-21T04:50:17;51700.72;;;-145.06;55.89
6530;BME280;3298;42.688;23.366;2023-02-21T04:52:45;51676.16;;;-145.06;56.06
6530;BME280;3298;42.688;23.366;2023-02-21T04:55:13;51708.91;;;-145.06;55.83
6530;BME280;3298;42.688;23.366;2023-02-21T04:57:40;51710.94;;;-145.06;55.63
6530;BME280;3298;42.688;23.366;2023-02-21T05:00:09;51688.44;;;-145.06;55.79
6530;BME280;3298;42.688;23.366;2023-02-21T05:02:41;51713.00;;;-145.06;55.90
6530;BME280;3298;42.688;23.366;2023-02-21T05:05:08;51665.91;;;-145.06;55.81
6530;BME280;3298;42.688;23.366;2023-02-21T05:07:35;51682.28;;;-145.06;55.77
6530;BME280;3298;42.688;23.366;2023-02-21T05:10:02;51680.25;;;-145.06;55.98
6530;BME280;3298;42.688;23.366;2023-02-21T05:12:30;51696.63;;;-145.06;56.07
6530;BME280;3298;42.688;23.366;2023-02-21T05:14:57;51680.25;;;-145.06;56.37
6530;BME280;3298;42.688;23.366;2023-02-21T05:17:24;51676.16;;;-145.06;56.79
6530;BME280;3298;42.688;23.366;2023-02-21T05:19:54;51696.63;;;-145.06;56.98
6530;BME280;3298;42.688;23.366;2023-02-21T05:22:20;51708.91;;;-145.06;56.75
6530;BME280;3298;42.688;23.366;2023-02-21T05:24:48;51696.63;;;-145.06;56.65
6530;BME280;3298;42.688;23.366;2023-02-21T05:27:15;51680.25;;;-145.06;57.43
6530;BME280;3298;42.688;23.366;2023-02-21T05:29:45;51708.91;;;-145.06;57.36
6530;BME280;3298;42.688;23.366;2023-02-21T05:32:12;51672.06;;;-145.06;57.72
6530;BME280;3298;42.688;23.366;2023-02-21T05:34:39;51700.72;;;-145.06;57.93
6530;BME280;3298;42.688;23.366;2023-02-21T05:37:10;51733.47;;;-145.06;57.79
6530;BME280;3298;42.688;23.366;2023-02-21T05:39:37;51690.47;;;-145.06;57.97
6530;BME280;3298;42.688;23.366;2023-02-21T05:42:04;51680.25;;;-145.06;58.11
6530;BME280;3298;42.688;23.366;2023-02-21T05:44:32;51706.84;;;-145.06;57.72
6530;BME280;3298;42.688;23.366;2023-02-21T05:46:59;51676.16;;;-145.06;57.55
6530;BME280;3298;42.688;23.366;2023-02-21T05:49:26;51704.81;;;-145.06;57.33
6530;BME280;3298;42.688;23.366;2023-02-21T05:51:54;51661.81;;;-145.06;57.03
6530;BME280;3298;42.688;23.366;2023-02-21T05:54:22;51692.53;;;-145.06;57.08
6530;BME280;3298;42.688;23.366;2023-02-21T05:56:50;51688.44;;;-145.06;56.96
6530;BME280;3298;42.688;23.366;2023-02-21T05:59:19;51672.06;;;-145.06;57.18
6530;BME280;3298;42.688;23.366;2023-02-21T06:01:47;51710.94;;;-145.06;57.00
6530;BME280;3298;42.688;23.366;2023-02-21T06:04:14;51661.81;;;-145.06;57.03
6530;BME280;3298;42.688;23.366;2023-02-21T06:06:42;51700.72;;;-145.06;57.23
6530;BME280;3298;42.688;23.366;2023-02-21T06:09:09;51670.00;;;-145.06;56.54
6530;BME280;3298;42.688;23.366;2023-02-21T06:11:38;51710.94;;;-145.06;56.10
6530;BME280;3298;42.688;23.366;2023-02-21T06:14:07;51704.81;;;-145.06;55.30
6530;BME280;3298;42.688;23.366;2023-02-21T06:16:35;51708.91;;;-145.06;55.42
6530;BME280;3298;42.688;23.366;2023-02-21T06:19:04;51688.44;;;-145.06;55.01
6530;BME280;3298;42.688;23.366;2023-02-21T06:21:31;51684.34;;;-145.06;54.04
6530;BME280;3298;42.688;23.366;2023-02-21T06:23:58;51717.09;;;-145.06;53.39
6530;BME280;3298;42.688;23.366;2023-02-21T06:26:25;51680.25;;;-145.06;53.29
6530;BME280;3298;42.688;23.366;2023-02-21T06:28:53;51708.91;;;-145.06;52.87
6530;BME280;3298;42.688;23.366;2023-02-21T06:31:20;51663.88;;;-145.06;52.27
6530;BME280;3298;42.688;23.366;2023-02-21T06:33:48;51698.66;;;-145.06;51.64
6530;BME280;3298;42.688;23.366;2023-02-21T06:36:16;51713.00;;;-145.06;51.49
6530;BME280;3298;42.688;23.366;2023-02-21T06:38:44;51696.63;;;-145.06;51.36
6530;BME280;3298;42.688;23.366;2023-02-21T06:41:13;51680.25;;;-145.06;51.03
6530;BME280;3298;42.688;23.366;2023-02-21T06:43:40;51700.72;;;-145.06;50.73
6530;BME280;3298;42.688;23.366;2023-02-21T06:46:14;51688.44;;;-145.06;50.83
6530;BME280;3298;42.688;23.366;2023-02-21T06:48:43;51688.44;;;-145.06;50.57
6530;BME280;3298;42.688;23.366;2023-02-21T06:51:10;51696.63;;;-145.06;50.17
6530;BME280;3298;42.688;23.366;2023-02-21T06:53:39;51729.38;;;-145.06;50.10
6530;BME280;3298;42.688;23.366;2023-02-21T06:56:06;51676.16;;;-145.06;50.10
6530;BME280;3298;42.688;23.366;2023-02-21T06:58:33;51696.63;;;-145.06;49.74
6530;BME280;3298;42.688;23.366;2023-02-21T07:01:00;51704.81;;;-145.06;49.79
6530;BME280;3298;42.688;23.366;2023-02-21T07:03:28;51717.09;;;-145.06;49.76
6530;BME280;3298;42.688;23.366;2023-02-21T07:05:55;51686.38;;;-145.06;49.46
6530;BME280;3298;42.688;23.366;2023-02-21T07:08:22;51717.09;;;-145.06;49.33
6530;BME280;3298;42.688;23.366;2023-02-21T07:10:50;51715.03;;;-145.06;48.71
6530;BME280;3298;42.688;23.366;2023-02-21T07:13:16;51708.91;;;-145.06;48.17
6530;BME280;3298;42.688;23.366;2023-02-21T07:15:43;51692.53;;;-145.06;48.29
6530;BME280;3298;42.688;23.366;2023-02-21T07:18:12;51727.31;;;-145.06;48.16
6530;BME280;3298;42.688;23.366;2023-02-21T07:20:40;51708.91;;;-145.06;48.11
6530;BME280;3298;42.688;23.366;2023-02-21T07:23:07;51723.22;;;-145.06;48.44
6530;BME280;3298;42.688;23.366;2023-02-21T07:25:33;51710.94;;;-145.06;48.73
6530;BME280;3298;42.688;23.366;2023-02-21T07:28:00;51690.47;;;-145.06;48.58
6530;BME280;3298;42.688;23.366;2023-02-21T07:30:28;51721.19;;;-145.06;48.30
6530;BME280;3298;42.688;23.366;2023-02-21T07:32:56;51706.84;;;-145.06;47.89
6530;BME280;3298;42.688;23.366;2023-02-21T07:35:22;51710.94;;;-145.06;47.76
6530;BME280;3298;42.688;23.366;2023-02-21T07:37:51;51715.03;;;-145.06;47.69
6530;BME280;3298;42.688;23.366;2023-02-21T07:40:17;51713.00;;;-145.06;47.13
6530;BME280;3298;42.688;23.366;2023-02-21T07:42:44;51715.03;;;-145.06;47.09
6530;BME280;3298;42.688;23.366;2023-02-21T07:45:13;51710.94;;;-145.06;46.68
6530;BME280;3298;42.688;23.366;2023-02-21T07:47:41;51690.47;;;-145.06;46.85
6530;BME280;3298;42.688;23.366;2023-02-21T07:50:10;51719.13;;;-145.06;46.43
6530;BME280;3298;42.688;23.366;2023-02-21T07:52:38;51719.13;;;-145.06;46.39
6530;BME280;3298;42.688;23.366;2023-02-21T07:55:06;51715.03;;;-145.06;46.25
6530;BME280;3298;42.688;23.366;2023-02-21T07:57:33;51708.91;;;-145.06;46.31
6530;BME280;3298;42.688;23.366;2023-02-21T08:00:00;51704.81;;;-145.06;45.84
6530;BME280;3298;42.688;23.366;2023-02-21T08:02:27;51721.19;;;-145.06;45.56
6530;BME280;3298;42.688;23.366;2023-02-21T08:04:53;51725.28;;;-145.06;46.13
6530;BME280;3298;42.688;23.366;2023-02-21T08:07:20;51723.22;;;-145.06;46.09
6530;BME280;3298;42.688;23.366;2023-02-21T08:09:47;51717.09;;;-145.06;45.91
6530;BME280;3298;42.688;23.366;2023-02-21T08:12:17;51713.00;;;-145.06;46.11
6530;BME280;3298;42.688;23.366;2023-02-21T08:14:43;51729.38;;;-145.06;45.82
6530;BME280;3298;42.688;23.366;2023-02-21T08:17:10;51713.00;;;-145.06;45.90
6530;BME280;3298;42.688;23.366;2023-02-21T08:19:38;51717.09;;;-145.06;45.66
6530;BME280;3298;42.688;23.366;2023-02-21T08:22:05;51749.84;;;-145.06;45.72
6530;BME280;3298;42.688;23.366;2023-02-21T08:24:31;51733.47;;;-145.06;45.61
6530;BME280;3298;42.688;23.366;2023-02-21T08:26:58;51739.59;;;-145.06;45.84
6530;BME280;3298;42.688;23.366;2023-02-21T08:29:26;51725.28;;;-145.06;46.01
6530;BME280;3298;42.688;23.366;2023-02-21T08:31:53;51696.63;;;-145.06;45.42
6530;BME280;3298;42.688;23.366;2023-02-21T08:34:20;51704.81;;;-145.06;45.59
6530;BME280;3298;42.688;23.366;2023-02-21T08:36:47;51741.66;;;-145.06;45.07
6530;BME280;3298;42.688;23.366;2023-02-21T08:39:13;51739.59;;;-145.06;45.14
6530;BME280;3298;42.688;23.366;2023-02-21T08:41:42;51715.03;;;-145.06;45.23
6530;BME280;3298;42.688;23.366;2023-02-21T08:44:10;51721.19;;;-145.06;45.02
6530;BME280;3298;42.688;23.366;2023-02-21T08:46:39;51713.00;;;-145.06;45.26
6530;BME280;3298;42.688;23.366;2023-02-21T08:49:06;51741.66;;;-145.06;44.93
6530;BME280;3298;42.688;23.366;2023-02-21T08:51:33;51713.00;;;-145.06;44.33
6530;BME280;3298;42.688;23.366;2023-02-21T08:54:01;51713.00;;;-145.06;44.66
6530;BME280;3298;42.688;23.366;2023-02-21T08:56:28;51725.28;;;-145.06;44.20
6530;BME280;3298;42.688;23.366;2023-02-21T08:58:55;51733.47;;;-145.06;44.45
6530;BME280;3298;42.688;23.366;2023-02-21T09:01:23;51729.38;;;-145.06;44.64
6530;BME280;3298;42.688;23.366;2023-02-21T09:03:52;51706.84;;;-145.06;44.15
6530;BME280;3298;42.688;23.366;2023-02-21T09:06:18;51751.88;;;-145.06;44.32
6530;BME280;3298;42.688;23.366;2023-02-21T09:08:45;51723.22;;;-145.06;44.04
6530;BME280;3298;42.688;23.366;2023-02-21T09:11:12;51715.03;;;-145.06;44.48
6530;BME280;3298;42.688;23.366;2023-02-21T09:13:38;51725.28;;;-145.06;44.51
6530;BME280;3298;42.688;23.366;2023-02-21T09:16:06;51713.00;;;-145.06;45.63
6530;BME280;3298;42.688;23.366;2023-02-21T09:18:32;51727.31;;;-145.06;45.45
6530;BME280;3298;42.688;23.366;2023-02-21T09:21:01;51719.13;;;-145.06;45.37
6530;BME280;3298;42.688;23.366;2023-02-21T09:23:29;51733.47;;;-145.06;44.98
6530;BME280;3298;42.688;23.366;2023-02-21T09:25:56;51741.66;;;-145.06;44.09
6530;BME280;3298;42.688;23.366;2023-02-21T09:28:23;51741.66;;;-145.06;44.72
6530;BME280;3298;42.688;23.366;2023-02-21T09:30:50;51721.19;;;-145.06;43.88
6530;BME280;3298;42.688;23.366;2023-02-21T09:33:17;51743.69;;;-145.06;43.53
6530;BME280;3298;42.688;23.366;2023-02-21T09:35:44;51715.03;;;-145.06;43.24
6530;BME280;3298;42.688;23.366;2023-02-21T09:38:12;51717.09;;;-145.06;43.02
6530;BME280;3298;42.688;23.366;2023-02-21T09:40:41;51704.81;;;-145.06;43.13
6530;BME280;3298;42.688;23.366;2023-02-21T09:43:12;51717.09;;;-145.06;43.36
6530;BME280;3298;42.688;23.366;2023-02-21T09:45:41;51755.97;;;-145.06;43.03
6530;BME280;3298;42.688;23.366;2023-02-21T09:48:12;51737.56;;;-145.06;42.71
6530;BME280;3298;42.688;23.366;2023-02-21T09:50:43;51739.59;;;-145.06;42.37
6530;BME280;3298;42.688;23.366;2023-02-21T09:53:14;51739.59;;;-145.06;42.21
6530;BME280;3298;42.688;23.366;2023-02-21T09:55:42;51733.47;;;-145.06;41.86
6530;BME280;3298;42.688;23.366;2023-02-21T09:58:11;51733.47;;;-145.06;41.32
6530;BME280;3298;42.688;23.366;2023-02-21T10:00:39;51737.56;;;-145.06;41.25
6530;BME280;3298;42.688;23.366;2023-02-21T10:03:33;51766.22;;;-145.06;40.29
6530;BME280;3298;42.688;23.366;2023-02-21T10:06:14;51745.75;;;-145.06;40.12
6530;BME280;3298;42.688;23.366;2023-02-21T10:08:52;51737.56;;;-145.06;40.27
6530;BME280;3298;42.688;23.366;2023-02-21T10:11:35;51721.19;;;-145.06;39.89
6530;BME280;3298;42.688;23.366;2023-02-21T10:14:14;51737.56;;;-145.06;39.48
6530;BME280;3298;42.688;23.366;2023-02-21T10:16:49;51741.66;;;-145.06;39.45
6530;BME280;3298;42.688;23.366;2023-02-21T10:19:21;51809.19;;;-145.06;39.07
6530;BME280;3298;42.688;23.366;2023-02-21T10:21:52;51729.38;;;-145.06;39.23
6530;BME280;3298;42.688;23.366;2023-02-21T10:24:23;51741.66;;;-145.06;38.97
6530;BME280;3298;42.688;23.366;2023-02-21T10:26:54;51741.66;;;-145.06;38.73
6530;BME280;3298;42.688;23.366;2023-02-21T10:29:26;51741.66;;;-145.06;38.54
6530;BME280;3298;42.688;23.366;2023-02-21T10:31:59;51733.47;;;-145.06;38.77
6530;BME280;3298;42.688;23.366;2023-02-21T10:34:30;51743.69;;;-145.06;39.31
6530;BME280;3298;42.688;23.366;2023-02-21T10:37:02;51762.13;;;-145.06;38.62
6530;BME280;3298;42.688;23.366;2023-02-21T10:39:34;51743.69;;;-145.06;38.63
6530;BME280;3298;42.688;23.366;2023-02-21T10:42:03;51766.22;;;-145.06;38.37
6530;BME280;3298;42.688;23.366;2023-02-21T10:44:31;51745.75;;;-145.06;38.20
6530;BME280;3298;42.688;23.366;2023-02-21T10:47:03;51733.47;;;-145.06;38.24
6530;BME280;3298;42.688;23.366;2023-02-21T10:49:39;51741.66;;;-145.06;37.91
6530;BME280;3298;42.688;23.366;2023-02-21T10:52:12;51753.94;;;-145.06;36.15
6530;BME280;3298;42.688;23.366;2023-02-21T10:54:59;51747.78;;;-145.06;33.63
6530;BME280;3298;42.688;23.366;2023-02-21T10:57:27;51780.53;;;-145.06;32.40
6530;BME280;3298;42.688;23.366;2023-02-21T10:59:55;51766.22;;;-145.06;31.97
6530;BME280;3298;42.688;23.366;2023-02-21T11:02:30;51745.75;;;-145.06;31.63
6530;BME280;3298;42.688;23.366;2023-02-21T11:05:11;51782.59;;;-145.06;31.69
6530;BME280;3298;42.688;23.366;2023-02-21T11:07:39;51749.84;;;-145.06;31.52
6530;BME280;3298;42.688;23.366;2023-02-21T11:10:28;51753.94;;;-145.06;31.60
6530;BME280;3298;42.688;23.366;2023-02-21T11:13:05;51778.50;;;-145.06;31.84
6530;BME280;3298;42.688;23.366;2023-02-21T11:15:32;51772.34;;;-145.06;31.11
6530;BME280;3298;42.688;23.366;2023-02-21T11:18:12;51778.50;;;-145.06;31.37
6530;BME280;3298;42.688;23.366;2023-02-21T11:20:40;51764.16;;;-145.06;31.43
6530;BME280;3298;42.688;23.366;2023-02-21T11:23:24;51569.72;;;-145.06;27.45
6530;BME280;3298;42.688;23.366;2023-02-21T11:25:58;51825.56;;;-145.06;23.48
6530;BME280;3298;42.688;23.366;2023-02-21T11:28:36;52038.44;;;-145.06;22.23
6530;BME280;3298;42.688;23.366;2023-02-21T11:31:07;52017.97;;;-145.06;22.20
6530;BME280;3298;42.688;23.366;2023-02-21T11:33:39;51925.84;;;-145.06;21.55
6530;BME280;3298;42.688;23.366;2023-02-21T11:36:10;51901.28;;;-145.06;21.45
6530;BME280;3298;42.688;23.366;2023-02-21T11:38:39;52058.91;;;-145.06;21.44
6530;BME280;3298;42.688;23.366;2023-02-21T11:41:26;51864.47;;;-145.06;21.65
6530;BME280;3298;42.688;23.366;2023-02-21T11:43:55;51807.16;;;-145.06;21.25
6530;BME280;3298;42.688;23.366;2023-02-21T11:46:38;51899.25;;;-145.06;21.29
6530;BME280;3298;42.688;23.366;2023-02-21T11:49:13;51917.66;;;-145.06;21.57
6530;BME280;3298;42.688;23.366;2023-02-21T11:51:46;51946.31;;;-145.06;21.62
6530;BME280;3298;42.688;23.366;2023-02-21T11:54:14;51913.56;;;-145.06;21.55
6530;BME280;3298;42.688;23.366;2023-02-21T11:56:50;51870.59;;;-145.06;23.94
6530;BME280;3298;42.688;23.366;2023-02-21T11:59:29;51923.81;;;-145.06;25.33
6530;BME280;3298;42.688;23.366;2023-02-21T12:02:41;51880.81;;;-145.06;26.27
6530;BME280;3298;42.688;23.366;2023-02-21T12:05:24;51897.19;;;-145.06;26.53
6530;BME280;3298;42.688;23.366;2023-02-21T12:08:04;51889.00;;;-145.06;26.61
6530;BME280;3298;42.688;23.366;2023-02-21T12:10:43;51864.47;;;-145.06;27.40
6530;BME280;3298;42.688;23.366;2023-02-21T12:13:24;51848.09;;;-145.06;27.19
6530;BME280;3298;42.688;23.366;2023-02-21T12:15:59;51872.66;;;-145.06;27.27
6530;BME280;3298;42.688;23.366;2023-02-21T12:18:41;51846.03;;;-145.06;27.87
6530;BME280;3298;42.688;23.366;2023-02-21T12:21:29;51872.66;;;-145.06;27.93
6530;BME280;3298;42.688;23.366;2023-02-21T12:24:06;51860.38;;;-145.06;28.00
6530;BME280;3298;42.688;23.366;2023-02-21T12:26:50;51835.81;;;-145.06;28.52
6530;BME280;3298;42.688;23.366;2023-02-21T12:29:33;51835.81;;;-145.06;28.39
6530;BME280;3298;42.688;23.366;2023-02-21T12:32:17;51841.94;;;-145.06;28.34
6530;BME280;3298;42.688;23.366;2023-02-21T12:34:59;51860.38;;;-145.06;28.79
6530;BME280;3298;42.688;23.366;2023-02-21T12:37:34;51844.00;;;-145.06;28.96
6530;BME280;3298;42.688;23.366;2023-02-21T12:40:19;51844.00;;;-145.06;28.97
6530;BME280;3298;42.688;23.366;2023-02-21T12:43:02;51823.53;;;-145.06;29.16
6530;BME280;3298;42.688;23.366;2023-02-21T12:45:43;51846.03;;;-145.06;28.94
6530;BME280;3298;42.688;23.366;2023-02-21T12:48:17;51854.22;;;-145.06;29.03
6530;BME280;3298;42.688;23.366;2023-02-21T12:50:51;51841.94;;;-145.06;28.88
6530;BME280;3298;42.688;23.366;2023-02-21T12:53:23;51868.56;;;-145.06;29.04
6530;BME280;3298;42.688;23.366;2023-02-21T12:55:56;51856.28;;;-145.06;29.15
6530;BME280;3298;42.688;23.366;2023-02-21T12:58:27;51841.94;;;-145.06;29.12
6530;BME280;3298;42.688;23.366;2023-02-21T13:01:01;51864.47;;;-145.06;29.11
6530;BME280;3298;42.688;23.366;2023-02-21T13:03:54;51839.91;;;-145.06;28.85
6530;BME280;3298;42.688;23.366;2023-02-21T13:06:27;51837.84;;;-145.06;28.95
6530;BME280;3298;42.688;23.366;2023-02-21T13:09:06;51932.00;;;-145.06;28.83
6530;BME280;3298;42.688;23.366;2023-02-21T13:11:38;51844.00;;;-145.06;28.66
6530;BME280;3298;42.688;23.366;2023-02-21T13:14:08;51860.38;;;-145.06;28.73
6530;BME280;3298;42.688;23.366;2023-02-21T13:16:38;51837.84;;;-145.06;28.86
6530;BME280;3298;42.688;23.366;2023-02-21T13:19:08;51815.34;;;-145.06;28.69
6530;BME280;3298;42.688;23.366;2023-02-21T13:21:48;51886.97;;;-145.06;28.86
6530;BME280;3298;42.688;23.366;2023-02-21T13:24:36;51844.00;;;-145.06;28.79
6530;BME280;3298;42.688;23.366;2023-02-21T13:27:29;51837.84;;;-145.06;28.74